sensor_id;sensor_type;location;lat;lon;timestamp;P1;durP1;ratioP1;P2;durP2;ratioP2
80776;SDS011;70169;51.262;6.336;2023-08-20T00:00:05;5.05;;;3.75;;
80776;SDS011;70169;51.262;6.336;2023-08-20T00:02:22;4.45;;;3.65;;
80776;SDS011;70169;51.262;6.336;2023-08-20T00:04:39;4.60;;;3.60;;
80776;SDS011;70169;51.262;6.336;2023-08-20T00:06:58;6.00;;;3.90;;
80776;SDS011;70169;51.262;6.336;2023-08-20T00:09:13;5.38;;;4.15;;
80776;SDS011;70169;51.262;6.336;2023-08-20T00:11:28;5.57;;;4.50;;
80776;SDS011;70169;51.262;6.336;2023-08-20T00:13:44;5.13;;;4.00;;
80776;SDS011;70169;51.262;6.336;2023-08-20T00:15:59;5.00;;;3.95;;
80776;SDS011;70169;51.262;6.336;2023-08-20T00:18:15;6.07;;;3.85;;
80776;SDS011;70169;51.262;6.336;2023-08-20T00:20:31;4.95;;;3.47;;
80776;SDS011;70169;51.262;6.336;2023-08-20T00:22:46;4.78;;;3.78;;
80776;SDS011;70169;51.262;6.336;2023-08-20T00:25:02;5.38;;;4.20;;
80776;SDS011;70169;51.262;6.336;2023-08-20T00:27:19;6.07;;;4.03;;
80776;SDS011;70169;51.262;6.336;2023-08-20T00:29:35;4.88;;;3.67;;
80776;SDS011;70169;51.262;6.336;2023-08-20T00:31:54;5.10;;;4.00;;
80776;SDS011;70169;51.262;6.336;2023-08-20T00:34:09;4.93;;;3.30;;
80776;SDS011;70169;51.262;6.336;2023-08-20T00:36:24;6.83;;;3.73;;
80776;SDS011;70169;51.262;6.336;2023-08-20T00:38:39;5.47;;;4.10;;
80776;SDS011;70169;51.262;6.336;2023-08-20T00:40:55;6.40;;;4.53;;
80776;SDS011;70169;51.262;6.336;2023-08-20T00:43:10;6.30;;;4.47;;
80776;SDS011;70169;51.262;6.336;2023-08-20T00:45:26;6.35;;;4.15;;
80776;SDS011;70169;51.262;6.336;2023-08-20T00:47:42;7.32;;;4.53;;
80776;SDS011;70169;51.262;6.336;2023-08-20T00:49:57;6.35;;;4.72;;
80776;SDS011;70169;51.262;6.336;2023-08-20T00:52:14;7.60;;;4.43;;
80776;SDS011;70169;51.262;6.336;2023-08-20T00:54:31;6.43;;;4.40;;
80776;SDS011;70169;51.262;6.336;2023-08-20T00:56:48;5.43;;;4.25;;
80776;SDS011;70169;51.262;6.336;2023-08-20T00:59:05;5.53;;;4.22;;
80776;SDS011;70169;51.262;6.336;2023-08-20T01:01:24;5.32;;;4.43;;
80776;SDS011;70169;51.262;6.336;2023-08-20T01:03:39;6.05;;;4.15;;
80776;SDS011;70169;51.262;6.336;2023-08-20T01:05:58;5.72;;;4.68;;
80776;SDS011;70169;51.262;6.336;2023-08-20T01:08:29;5.97;;;4.15;;
80776;SDS011;70169;51.262;6.336;2023-08-20T01:13:35;5.72;;;4.00;;
80776;SDS011;70169;51.262;6.336;2023-08-20T01:15:50;7.20;;;4.47;;
80776;SDS011;70169;51.262;6.336;2023-08-20T01:18:06;7.90;;;4.53;;
80776;SDS011;70169;51.262;6.336;2023-08-20T01:20:22;6.55;;;4.78;;
80776;SDS011;70169;51.262;6.336;2023-08-20T01:29:57;7.97;;;6.07;;
80776;SDS011;70169;51.262;6.336;2023-08-20T01:32:14;10.77;;;6.93;;
80776;SDS011;70169;51.262;6.336;2023-08-20T01:34:31;9.88;;;6.97;;
80776;SDS011;70169;51.262;6.336;2023-08-20T01:36:47;8.43;;;6.80;;
80776;SDS011;70169;51.262;6.336;2023-08-20T01:39:02;9.73;;;6.83;;
80776;SDS011;70169;51.262;6.336;2023-08-20T01:41:19;8.43;;;6.20;;
80776;SDS011;70169;51.262;6.336;2023-08-20T01:43:35;9.93;;;6.90;;
80776;SDS011;70169;51.262;6.336;2023-08-20T01:45:50;8.70;;;6.30;;
80776;SDS011;70169;51.262;6.336;2023-08-20T01:48:05;8.27;;;5.40;;
80776;SDS011;70169;51.262;6.336;2023-08-20T01:50:21;9.18;;;6.28;;
80776;SDS011;70169;51.262;6.336;2023-08-20T01:52:36;10.73;;;7.00;;
80776;SDS011;70169;51.262;6.336;2023-08-20T01:54:52;8.47;;;6.47;;
80776;SDS011;70169;51.262;6.336;2023-08-20T01:57:08;7.93;;;6.43;;
80776;SDS011;70169;51.262;6.336;2023-08-20T01:59:23;7.47;;;6.03;;
80776;SDS011;70169;51.262;6.336;2023-08-20T02:01:39;11.68;;;6.28;;
80776;SDS011;70169;51.262;6.336;2023-08-20T02:03:54;7.93;;;6.57;;
80776;SDS011;70169;51.262;6.336;2023-08-20T02:06:09;8.60;;;6.73;;
80776;SDS011;70169;51.262;6.336;2023-08-20T02:08:24;10.40;;;6.87;;
80776;SDS011;70169;51.262;6.336;2023-08-20T02:10:40;8.50;;;6.40;;
80776;SDS011;70169;51.262;6.336;2023-08-20T02:12:55;8.57;;;6.30;;
80776;SDS011;70169;51.262;6.336;2023-08-20T02:15:10;8.90;;;6.07;;
80776;SDS011;70169;51.262;6.336;2023-08-20T02:17:26;8.80;;;6.15;;
80776;SDS011;70169;51.262;6.336;2023-08-20T02:19:42;8.03;;;5.93;;
80776;SDS011;70169;51.262;6.336;2023-08-20T02:21:57;7.53;;;5.70;;
80776;SDS011;70169;51.262;6.336;2023-08-20T02:24:12;8.47;;;5.47;;
80776;SDS011;70169;51.262;6.336;2023-08-20T02:26:27;8.03;;;5.93;;
80776;SDS011;70169;51.262;6.336;2023-08-20T02:28:43;8.10;;;6.37;;
80776;SDS011;70169;51.262;6.336;2023-08-20T02:30:58;7.10;;;5.83;;
80776;SDS011;70169;51.262;6.336;2023-08-20T02:33:19;8.85;;;5.35;;
80776;SDS011;70169;51.262;6.336;2023-08-20T02:35:34;7.73;;;6.27;;
80776;SDS011;70169;51.262;6.336;2023-08-20T02:37:49;8.60;;;6.17;;
80776;SDS011;70169;51.262;6.336;2023-08-20T02:40:05;9.20;;;6.63;;
80776;SDS011;70169;51.262;6.336;2023-08-20T02:42:21;8.48;;;5.75;;
80776;SDS011;70169;51.262;6.336;2023-08-20T02:44:36;8.47;;;6.53;;
80776;SDS011;70169;51.262;6.336;2023-08-20T02:46:52;8.73;;;6.75;;
80776;SDS011;70169;51.262;6.336;2023-08-20T02:49:07;8.13;;;6.33;;
80776;SDS011;70169;51.262;6.336;2023-08-20T02:51:22;9.00;;;6.20;;
80776;SDS011;70169;51.262;6.336;2023-08-20T02:53:38;7.77;;;6.27;;
80776;SDS011;70169;51.262;6.336;2023-08-20T02:55:53;7.97;;;6.10;;
80776;SDS011;70169;51.262;6.336;2023-08-20T02:58:08;9.20;;;7.50;;
80776;SDS011;70169;51.262;6.336;2023-08-20T03:00:24;10.63;;;6.72;;
80776;SDS011;70169;51.262;6.336;2023-08-20T03:02:39;9.57;;;6.90;;
80776;SDS011;70169;51.262;6.336;2023-08-20T03:04:56;10.98;;;7.80;;
80776;SDS011;70169;51.262;6.336;2023-08-20T03:07:12;9.47;;;7.70;;
80776;SDS011;70169;51.262;6.336;2023-08-20T03:09:27;9.93;;;7.90;;
80776;SDS011;70169;51.262;6.336;2023-08-20T03:11:42;10.37;;;7.77;;
80776;SDS011;70169;51.262;6.336;2023-08-20T03:13:58;11.73;;;7.72;;
80776;SDS011;70169;51.262;6.336;2023-08-20T03:16:13;10.57;;;7.07;;
80776;SDS011;70169;51.262;6.336;2023-08-20T03:18:28;9.87;;;7.03;;
80776;SDS011;70169;51.262;6.336;2023-08-20T03:20:44;9.10;;;6.93;;
80776;SDS011;70169;51.262;6.336;2023-08-20T03:22:59;9.33;;;7.13;;
80776;SDS011;70169;51.262;6.336;2023-08-20T03:25:14;9.67;;;8.20;;
80776;SDS011;70169;51.262;6.336;2023-08-20T03:27:30;10.27;;;7.90;;
80776;SDS011;70169;51.262;6.336;2023-08-20T03:29:45;9.68;;;7.05;;
80776;SDS011;70169;51.262;6.336;2023-08-20T03:32:01;9.27;;;7.28;;
80776;SDS011;70169;51.262;6.336;2023-08-20T03:34:16;9.83;;;7.60;;
80776;SDS011;70169;51.262;6.336;2023-08-20T03:36:31;9.03;;;6.50;;
80776;SDS011;70169;51.262;6.336;2023-08-20T03:38:47;9.50;;;7.20;;
80776;SDS011;70169;51.262;6.336;2023-08-20T03:41:02;11.07;;;7.27;;
80776;SDS011;70169;51.262;6.336;2023-08-20T03:43:18;8.15;;;6.43;;
80776;SDS011;70169;51.262;6.336;2023-08-20T03:45:33;8.30;;;6.40;;
80776;SDS011;70169;51.262;6.336;2023-08-20T03:47:48;10.63;;;7.77;;
80776;SDS011;70169;51.262;6.336;2023-08-20T03:50:04;9.90;;;6.90;;
80776;SDS011;70169;51.262;6.336;2023-08-20T03:52:19;8.82;;;7.07;;
80776;SDS011;70169;51.262;6.336;2023-08-20T03:54:35;8.00;;;6.53;;
80776;SDS011;70169;51.262;6.336;2023-08-20T03:56:50;8.73;;;7.13;;
80776;SDS011;70169;51.262;6.336;2023-08-20T03:59:06;8.88;;;7.25;;
80776;SDS011;70169;51.262;6.336;2023-08-20T04:01:21;9.90;;;7.05;;
80776;SDS011;70169;51.262;6.336;2023-08-20T04:03:36;9.23;;;6.30;;
80776;SDS011;70169;51.262;6.336;2023-08-20T04:05:52;7.67;;;6.17;;
80776;SDS011;70169;51.262;6.336;2023-08-20T04:08:07;10.63;;;6.77;;
80776;SDS011;70169;51.262;6.336;2023-08-20T04:10:22;9.00;;;5.75;;
80776;SDS011;70169;51.262;6.336;2023-08-20T04:12:38;8.70;;;6.50;;
80776;SDS011;70169;51.262;6.336;2023-08-20T04:14:53;10.50;;;6.67;;
80776;SDS011;70169;51.262;6.336;2023-08-20T04:17:08;9.55;;;6.65;;
80776;SDS011;70169;51.262;6.336;2023-08-20T04:19:24;7.60;;;6.37;;
80776;SDS011;70169;51.262;6.336;2023-08-20T04:21:39;8.10;;;6.27;;
80776;SDS011;70169;51.262;6.336;2023-08-20T04:23:54;8.90;;;6.07;;
80776;SDS011;70169;51.262;6.336;2023-08-20T04:26:10;9.30;;;7.20;;
80776;SDS011;70169;51.262;6.336;2023-08-20T04:28:25;8.70;;;6.77;;
80776;SDS011;70169;51.262;6.336;2023-08-20T04:30:40;8.07;;;5.13;;
80776;SDS011;70169;51.262;6.336;2023-08-20T04:32:56;8.60;;;6.53;;
80776;SDS011;70169;51.262;6.336;2023-08-20T04:35:11;8.97;;;6.50;;
80776;SDS011;70169;51.262;6.336;2023-08-20T04:37:26;8.00;;;5.80;;
80776;SDS011;70169;51.262;6.336;2023-08-20T04:39:42;9.03;;;6.63;;
80776;SDS011;70169;51.262;6.336;2023-08-20T04:41:57;8.33;;;6.50;;
80776;SDS011;70169;51.262;6.336;2023-08-20T04:44:15;9.48;;;6.68;;
80776;SDS011;70169;51.262;6.336;2023-08-20T04:46:30;6.75;;;5.72;;
80776;SDS011;70169;51.262;6.336;2023-08-20T04:48:46;9.23;;;6.63;;
80776;SDS011;70169;51.262;6.336;2023-08-20T04:51:01;8.90;;;7.20;;
80776;SDS011;70169;51.262;6.336;2023-08-20T04:53:16;7.40;;;6.30;;
80776;SDS011;70169;51.262;6.336;2023-08-20T04:55:32;7.03;;;5.70;;
80776;SDS011;70169;51.262;6.336;2023-08-20T04:57:47;10.05;;;6.38;;
80776;SDS011;70169;51.262;6.336;2023-08-20T05:00:03;8.27;;;6.20;;
80776;SDS011;70169;51.262;6.336;2023-08-20T05:02:19;8.13;;;5.82;;
80776;SDS011;70169;51.262;6.336;2023-08-20T05:04:34;8.10;;;6.53;;
80776;SDS011;70169;51.262;6.336;2023-08-20T05:06:49;6.37;;;5.67;;
80776;SDS011;70169;51.262;6.336;2023-08-20T05:09:05;8.50;;;5.85;;
80776;SDS011;70169;51.262;6.336;2023-08-20T05:11:20;7.37;;;5.43;;
80776;SDS011;70169;51.262;6.336;2023-08-20T05:13:36;8.13;;;5.38;;
80776;SDS011;70169;51.262;6.336;2023-08-20T05:15:51;7.87;;;6.20;;
80776;SDS011;70169;51.262;6.336;2023-08-20T05:18:06;7.20;;;6.05;;
80776;SDS011;70169;51.262;6.336;2023-08-20T05:20:22;7.37;;;6.23;;
80776;SDS011;70169;51.262;6.336;2023-08-20T05:22:37;7.03;;;6.13;;
80776;SDS011;70169;51.262;6.336;2023-08-20T05:24:55;9.20;;;6.03;;
80776;SDS011;70169;51.262;6.336;2023-08-20T05:27:12;8.02;;;5.72;;
80776;SDS011;70169;51.262;6.336;2023-08-20T05:29:29;7.30;;;5.47;;
80776;SDS011;70169;51.262;6.336;2023-08-20T05:31:44;7.63;;;5.83;;
80776;SDS011;70169;51.262;6.336;2023-08-20T05:34:00;6.37;;;5.20;;
80776;SDS011;70169;51.262;6.336;2023-08-20T05:36:15;6.67;;;5.53;;
80776;SDS011;70169;51.262;6.336;2023-08-20T05:38:30;7.80;;;6.10;;
80776;SDS011;70169;51.262;6.336;2023-08-20T05:40:46;7.47;;;5.60;;
80776;SDS011;70169;51.262;6.336;2023-08-20T05:43:01;6.83;;;5.50;;
80776;SDS011;70169;51.262;6.336;2023-08-20T05:45:16;7.40;;;5.63;;
80776;SDS011;70169;51.262;6.336;2023-08-20T05:47:32;8.13;;;6.37;;
80776;SDS011;70169;51.262;6.336;2023-08-20T05:49:47;9.43;;;6.40;;
80776;SDS011;70169;51.262;6.336;2023-08-20T05:52:02;8.87;;;7.07;;
80776;SDS011;70169;51.262;6.336;2023-08-20T05:54:18;8.82;;;6.57;;
80776;SDS011;70169;51.262;6.336;2023-08-20T05:56:34;8.85;;;6.53;;
80776;SDS011;70169;51.262;6.336;2023-08-20T05:58:50;8.60;;;6.37;;
80776;SDS011;70169;51.262;6.336;2023-08-20T06:01:06;8.90;;;6.53;;
80776;SDS011;70169;51.262;6.336;2023-08-20T06:03:21;8.60;;;6.20;;
80776;SDS011;70169;51.262;6.336;2023-08-20T06:05:36;8.27;;;6.10;;
80776;SDS011;70169;51.262;6.336;2023-08-20T06:07:52;7.93;;;5.87;;
80776;SDS011;70169;51.262;6.336;2023-08-20T06:10:07;6.95;;;5.22;;
80776;SDS011;70169;51.262;6.336;2023-08-20T06:12:23;8.07;;;6.35;;
80776;SDS011;70169;51.262;6.336;2023-08-20T06:14:39;8.05;;;5.55;;
80776;SDS011;70169;51.262;6.336;2023-08-20T06:16:54;7.60;;;5.77;;
80776;SDS011;70169;51.262;6.336;2023-08-20T06:19:09;6.95;;;5.72;;
80776;SDS011;70169;51.262;6.336;2023-08-20T06:21:28;6.97;;;5.57;;
80776;SDS011;70169;51.262;6.336;2023-08-20T06:23:43;5.97;;;4.95;;
80776;SDS011;70169;51.262;6.336;2023-08-20T06:25:58;6.80;;;4.87;;
80776;SDS011;70169;51.262;6.336;2023-08-20T06:28:14;7.33;;;5.23;;
80776;SDS011;70169;51.262;6.336;2023-08-20T06:30:29;7.20;;;5.10;;
80776;SDS011;70169;51.262;6.336;2023-08-20T06:32:44;7.87;;;6.07;;
80776;SDS011;70169;51.262;6.336;2023-08-20T06:35:00;9.48;;;7.03;;
80776;SDS011;70169;51.262;6.336;2023-08-20T06:37:15;10.17;;;6.53;;
80776;SDS011;70169;51.262;6.336;2023-08-20T06:39:30;8.83;;;6.63;;
80776;SDS011;70169;51.262;6.336;2023-08-20T06:41:46;8.87;;;6.37;;
80776;SDS011;70169;51.262;6.336;2023-08-20T06:44:01;10.25;;;5.90;;
80776;SDS011;70169;51.262;6.336;2023-08-20T06:46:17;8.20;;;6.00;;
80776;SDS011;70169;51.262;6.336;2023-08-20T06:48:33;7.28;;;5.85;;
80776;SDS011;70169;51.262;6.336;2023-08-20T06:50:48;6.83;;;4.73;;
80776;SDS011;70169;51.262;6.336;2023-08-20T06:53:03;8.30;;;5.40;;
80776;SDS011;70169;51.262;6.336;2023-08-20T06:55:20;6.20;;;4.40;;
80776;SDS011;70169;51.262;6.336;2023-08-20T06:57:35;7.20;;;5.17;;
80776;SDS011;70169;51.262;6.336;2023-08-20T06:59:54;7.20;;;5.45;;
80776;SDS011;70169;51.262;6.336;2023-08-20T07:02:10;7.07;;;5.57;;
80776;SDS011;70169;51.262;6.336;2023-08-20T07:04:25;6.43;;;5.20;;
80776;SDS011;70169;51.262;6.336;2023-08-20T07:06:41;6.82;;;5.47;;
80776;SDS011;70169;51.262;6.336;2023-08-20T07:08:56;7.13;;;5.32;;
80776;SDS011;70169;51.262;6.336;2023-08-20T07:11:12;6.63;;;4.55;;
80776;SDS011;70169;51.262;6.336;2023-08-20T07:13:27;5.57;;;4.10;;
80776;SDS011;70169;51.262;6.336;2023-08-20T07:15:42;6.23;;;4.97;;
80776;SDS011;70169;51.262;6.336;2023-08-20T07:17:58;9.23;;;5.83;;
80776;SDS011;70169;51.262;6.336;2023-08-20T07:20:13;6.97;;;5.50;;
80776;SDS011;70169;51.262;6.336;2023-08-20T07:22:28;7.37;;;5.43;;
80776;SDS011;70169;51.262;6.336;2023-08-20T07:24:44;6.43;;;4.60;;
80776;SDS011;70169;51.262;6.336;2023-08-20T07:26:59;8.57;;;5.67;;
80776;SDS011;70169;51.262;6.336;2023-08-20T07:29:15;7.15;;;5.13;;
80776;SDS011;70169;51.262;6.336;2023-08-20T07:31:32;5.97;;;4.60;;
80776;SDS011;70169;51.262;6.336;2023-08-20T07:33:48;7.80;;;5.18;;
80776;SDS011;70169;51.262;6.336;2023-08-20T07:36:04;9.63;;;6.07;;
80776;SDS011;70169;51.262;6.336;2023-08-20T07:38:20;11.07;;;7.75;;
80776;SDS011;70169;51.262;6.336;2023-08-20T07:40:35;10.73;;;6.83;;
80776;SDS011;70169;51.262;6.336;2023-08-20T07:42:51;9.02;;;6.80;;
80776;SDS011;70169;51.262;6.336;2023-08-20T07:45:06;8.67;;;5.97;;
80776;SDS011;70169;51.262;6.336;2023-08-20T07:47:22;7.85;;;5.68;;
80776;SDS011;70169;51.262;6.336;2023-08-20T07:49:38;8.53;;;6.23;;
80776;SDS011;70169;51.262;6.336;2023-08-20T07:51:53;7.60;;;4.87;;
80776;SDS011;70169;51.262;6.336;2023-08-20T07:54:09;7.25;;;5.43;;
80776;SDS011;70169;51.262;6.336;2023-08-20T07:56:24;7.57;;;5.63;;
80776;SDS011;70169;51.262;6.336;2023-08-20T07:58:41;8.73;;;6.03;;
80776;SDS011;70169;51.262;6.336;2023-08-20T08:00:56;8.27;;;6.55;;
80776;SDS011;70169;51.262;6.336;2023-08-20T08:03:12;9.73;;;7.00;;
80776;SDS011;70169;51.262;6.336;2023-08-20T08:05:29;9.13;;;6.85;;
80776;SDS011;70169;51.262;6.336;2023-08-20T08:07:45;8.90;;;6.73;;
80776;SDS011;70169;51.262;6.336;2023-08-20T08:10:00;12.20;;;9.03;;
80776;SDS011;70169;51.262;6.336;2023-08-20T08:12:15;12.03;;;8.67;;
80776;SDS011;70169;51.262;6.336;2023-08-20T08:14:30;13.87;;;10.67;;
80776;SDS011;70169;51.262;6.336;2023-08-20T08:16:46;12.52;;;9.93;;
80776;SDS011;70169;51.262;6.336;2023-08-20T08:19:01;13.60;;;10.32;;
80776;SDS011;70169;51.262;6.336;2023-08-20T08:21:17;14.07;;;10.48;;
80776;SDS011;70169;51.262;6.336;2023-08-20T08:23:33;14.02;;;10.65;;
80776;SDS011;70169;51.262;6.336;2023-08-20T08:25:48;16.33;;;11.93;;
80776;SDS011;70169;51.262;6.336;2023-08-20T08:28:07;14.33;;;11.03;;
80776;SDS011;70169;51.262;6.336;2023-08-20T08:30:22;15.25;;;11.93;;
80776;SDS011;70169;51.262;6.336;2023-08-20T08:32:37;14.45;;;12.00;;
80776;SDS011;70169;51.262;6.336;2023-08-20T08:34:53;18.33;;;13.23;;
80776;SDS011;70169;51.262;6.336;2023-08-20T08:37:08;17.77;;;12.37;;
80776;SDS011;70169;51.262;6.336;2023-08-20T08:39:23;19.33;;;14.05;;
80776;SDS011;70169;51.262;6.336;2023-08-20T08:41:39;18.00;;;12.87;;
80776;SDS011;70169;51.262;6.336;2023-08-20T08:43:57;20.90;;;14.98;;
80776;SDS011;70169;51.262;6.336;2023-08-20T08:46:13;18.30;;;13.60;;
80776;SDS011;70169;51.262;6.336;2023-08-20T08:48:31;19.92;;;12.68;;
80776;SDS011;70169;51.262;6.336;2023-08-20T08:50:47;17.95;;;12.88;;
80776;SDS011;70169;51.262;6.336;2023-08-20T08:53:04;16.92;;;14.00;;
80776;SDS011;70169;51.262;6.336;2023-08-20T08:57:36;18.23;;;12.87;;
80776;SDS011;70169;51.262;6.336;2023-08-20T08:59:52;17.33;;;13.18;;
80776;SDS011;70169;51.262;6.336;2023-08-20T09:02:08;16.52;;;12.30;;
80776;SDS011;70169;51.262;6.336;2023-08-20T09:04:25;24.83;;;17.38;;
80776;SDS011;70169;51.262;6.336;2023-08-20T09:06:47;17.60;;;14.57;;
80776;SDS011;70169;51.262;6.336;2023-08-20T09:09:06;18.40;;;13.02;;
80776;SDS011;70169;51.262;6.336;2023-08-20T09:11:22;18.40;;;12.85;;
80776;SDS011;70169;51.262;6.336;2023-08-20T09:13:38;15.03;;;11.33;;
80776;SDS011;70169;51.262;6.336;2023-08-20T09:15:54;14.35;;;11.07;;
80776;SDS011;70169;51.262;6.336;2023-08-20T09:18:09;12.00;;;9.47;;
80776;SDS011;70169;51.262;6.336;2023-08-20T09:20:35;11.25;;;8.68;;
80776;SDS011;70169;51.262;6.336;2023-08-20T09:22:51;12.18;;;9.73;;
80776;SDS011;70169;51.262;6.336;2023-08-20T09:25:06;12.70;;;9.97;;
80776;SDS011;70169;51.262;6.336;2023-08-20T09:27:22;10.98;;;9.30;;
80776;SDS011;70169;51.262;6.336;2023-08-20T09:29:45;9.85;;;7.93;;
80776;SDS011;70169;51.262;6.336;2023-08-20T09:32:01;9.57;;;7.70;;
80776;SDS011;70169;51.262;6.336;2023-08-20T09:34:20;10.45;;;7.63;;
80776;SDS011;70169;51.262;6.336;2023-08-20T09:36:35;9.20;;;7.73;;
80776;SDS011;70169;51.262;6.336;2023-08-20T09:38:51;11.03;;;9.10;;
80776;SDS011;70169;51.262;6.336;2023-08-20T09:41:06;10.57;;;8.43;;
80776;SDS011;70169;51.262;6.336;2023-08-20T09:43:24;12.15;;;9.25;;
80776;SDS011;70169;51.262;6.336;2023-08-20T09:45:45;12.63;;;10.30;;
80776;SDS011;70169;51.262;6.336;2023-08-20T09:48:02;13.07;;;10.02;;
80776;SDS011;70169;51.262;6.336;2023-08-20T09:50:20;14.55;;;11.48;;
80776;SDS011;70169;51.262;6.336;2023-08-20T09:57:23;21.33;;;14.32;;
80776;SDS011;70169;51.262;6.336;2023-08-20T09:59:45;26.15;;;18.98;;
80776;SDS011;70169;51.262;6.336;2023-08-20T10:02:01;21.38;;;14.88;;
80776;SDS011;70169;51.262;6.336;2023-08-20T10:04:17;17.27;;;13.00;;
80776;SDS011;70169;51.262;6.336;2023-08-20T10:06:33;15.65;;;11.88;;
80776;SDS011;70169;51.262;6.336;2023-08-20T10:08:51;17.63;;;13.05;;
80776;SDS011;70169;51.262;6.336;2023-08-20T10:11:08;15.50;;;11.38;;
80776;SDS011;70169;51.262;6.336;2023-08-20T10:13:24;17.27;;;12.93;;
80776;SDS011;70169;51.262;6.336;2023-08-20T10:15:39;19.30;;;13.73;;
80776;SDS011;70169;51.262;6.336;2023-08-20T10:17:57;20.42;;;15.43;;
80776;SDS011;70169;51.262;6.336;2023-08-20T10:20:13;20.00;;;13.20;;
80776;SDS011;70169;51.262;6.336;2023-08-20T10:22:33;15.23;;;10.93;;
80776;SDS011;70169;51.262;6.336;2023-08-20T10:24:52;13.15;;;10.18;;
80776;SDS011;70169;51.262;6.336;2023-08-20T10:27:09;15.10;;;10.35;;
80776;SDS011;70169;51.262;6.336;2023-08-20T10:29:38;18.52;;;12.00;;
80776;SDS011;70169;51.262;6.336;2023-08-20T10:31:55;17.63;;;11.35;;
80776;SDS011;70169;51.262;6.336;2023-08-20T10:34:10;15.48;;;12.57;;
80776;SDS011;70169;51.262;6.336;2023-08-20T10:36:26;13.83;;;11.10;;
80776;SDS011;70169;51.262;6.336;2023-08-20T10:38:44;18.27;;;14.23;;
80776;SDS011;70169;51.262;6.336;2023-08-20T10:41:00;16.90;;;13.75;;
80776;SDS011;70169;51.262;6.336;2023-08-20T10:45:44;11.85;;;10.10;;
80776;SDS011;70169;51.262;6.336;2023-08-20T10:47:59;12.25;;;9.73;;
80776;SDS011;70169;51.262;6.336;2023-08-20T10:50:15;15.23;;;12.23;;
80776;SDS011;70169;51.262;6.336;2023-08-20T10:52:32;12.98;;;10.23;;
80776;SDS011;70169;51.262;6.336;2023-08-20T10:54:54;14.25;;;10.90;;
80776;SDS011;70169;51.262;6.336;2023-08-20T10:57:11;11.10;;;8.90;;
80776;SDS011;70169;51.262;6.336;2023-08-20T10:59:27;11.32;;;10.05;;
80776;SDS011;70169;51.262;6.336;2023-08-20T11:01:45;12.35;;;10.35;;
80776;SDS011;70169;51.262;6.336;2023-08-20T11:04:02;11.98;;;9.38;;
80776;SDS011;70169;51.262;6.336;2023-08-20T11:06:21;9.45;;;8.13;;
80776;SDS011;70169;51.262;6.336;2023-08-20T11:08:37;10.25;;;8.68;;
80776;SDS011;70169;51.262;6.336;2023-08-20T11:10:54;10.70;;;8.52;;
80776;SDS011;70169;51.262;6.336;2023-08-20T11:13:10;8.68;;;7.28;;
80776;SDS011;70169;51.262;6.336;2023-08-20T11:15:26;11.73;;;8.17;;
80776;SDS011;70169;51.262;6.336;2023-08-20T11:17:44;9.25;;;7.43;;
80776;SDS011;70169;51.262;6.336;2023-08-20T11:20:00;7.72;;;6.93;;
80776;SDS011;70169;51.262;6.336;2023-08-20T11:22:16;11.38;;;7.60;;
80776;SDS011;70169;51.262;6.336;2023-08-20T11:24:33;8.40;;;6.97;;
80776;SDS011;70169;51.262;6.336;2023-08-20T11:26:49;8.85;;;7.13;;
80776;SDS011;70169;51.262;6.336;2023-08-20T11:29:11;6.83;;;6.07;;
80776;SDS011;70169;51.262;6.336;2023-08-20T11:31:28;7.43;;;6.15;;
80776;SDS011;70169;51.262;6.336;2023-08-20T11:33:44;7.20;;;5.93;;
80776;SDS011;70169;51.262;6.336;2023-08-20T11:35:59;8.37;;;5.73;;
80776;SDS011;70169;51.262;6.336;2023-08-20T11:38:15;7.43;;;6.00;;
80776;SDS011;70169;51.262;6.336;2023-08-20T11:40:31;7.45;;;5.95;;
80776;SDS011;70169;51.262;6.336;2023-08-20T11:42:46;7.63;;;5.87;;
80776;SDS011;70169;51.262;6.336;2023-08-20T11:47:58;8.07;;;5.88;;
80776;SDS011;70169;51.262;6.336;2023-08-20T11:50:14;9.15;;;5.85;;
80776;SDS011;70169;51.262;6.336;2023-08-20T11:52:33;7.87;;;5.90;;
80776;SDS011;70169;51.262;6.336;2023-08-20T11:54:49;5.75;;;4.63;;
80776;SDS011;70169;51.262;6.336;2023-08-20T11:57:05;6.23;;;5.17;;
80776;SDS011;70169;51.262;6.336;2023-08-20T11:59:21;6.93;;;5.15;;
80776;SDS011;70169;51.262;6.336;2023-08-20T12:01:43;6.63;;;5.28;;
80776;SDS011;70169;51.262;6.336;2023-08-20T12:04:03;7.25;;;5.00;;
80776;SDS011;70169;51.262;6.336;2023-08-20T12:06:19;9.50;;;5.20;;
80776;SDS011;70169;51.262;6.336;2023-08-20T12:10:53;6.70;;;4.90;;
80776;SDS011;70169;51.262;6.336;2023-08-20T12:13:12;6.13;;;5.00;;
80776;SDS011;70169;51.262;6.336;2023-08-20T12:15:28;6.10;;;4.80;;
80776;SDS011;70169;51.262;6.336;2023-08-20T12:17:43;6.30;;;4.83;;
80776;SDS011;70169;51.262;6.336;2023-08-20T12:19:58;9.90;;;5.17;;
80776;SDS011;70169;51.262;6.336;2023-08-20T12:22:14;7.90;;;4.40;;
80776;SDS011;70169;51.262;6.336;2023-08-20T12:24:29;5.23;;;4.53;;
80776;SDS011;70169;51.262;6.336;2023-08-20T12:26:44;6.38;;;4.28;;
80776;SDS011;70169;51.262;6.336;2023-08-20T12:29:00;4.85;;;4.00;;
80776;SDS011;70169;51.262;6.336;2023-08-20T12:31:15;6.37;;;4.57;;
80776;SDS011;70169;51.262;6.336;2023-08-20T12:33:31;7.70;;;5.10;;
80776;SDS011;70169;51.262;6.336;2023-08-20T12:35:46;5.05;;;4.43;;
80776;SDS011;70169;51.262;6.336;2023-08-20T12:38:02;7.35;;;4.82;;
80776;SDS011;70169;51.262;6.336;2023-08-20T12:40:18;6.35;;;4.35;;
80776;SDS011;70169;51.262;6.336;2023-08-20T12:42:33;5.43;;;4.10;;
80776;SDS011;70169;51.262;6.336;2023-08-20T12:44:49;5.13;;;3.65;;
80776;SDS011;70169;51.262;6.336;2023-08-20T12:47:04;5.13;;;3.50;;
80776;SDS011;70169;51.262;6.336;2023-08-20T12:49:19;6.22;;;4.22;;
80776;SDS011;70169;51.262;6.336;2023-08-20T12:51:35;4.90;;;4.20;;
80776;SDS011;70169;51.262;6.336;2023-08-20T12:53:50;4.77;;;3.47;;
80776;SDS011;70169;51.262;6.336;2023-08-20T12:56:05;5.53;;;3.43;;
80776;SDS011;70169;51.262;6.336;2023-08-20T12:58:22;5.05;;;3.83;;
80776;SDS011;70169;51.262;6.336;2023-08-20T13:00:37;4.35;;;3.72;;
80776;SDS011;70169;51.262;6.336;2023-08-20T13:02:53;6.30;;;3.60;;
80776;SDS011;70169;51.262;6.336;2023-08-20T13:05:09;4.57;;;3.65;;
80776;SDS011;70169;51.262;6.336;2023-08-20T13:09:42;5.05;;;3.60;;
80776;SDS011;70169;51.262;6.336;2023-08-20T13:12:00;4.50;;;3.50;;
80776;SDS011;70169;51.262;6.336;2023-08-20T13:14:17;6.00;;;3.90;;
80776;SDS011;70169;51.262;6.336;2023-08-20T13:16:32;3.95;;;3.38;;
80776;SDS011;70169;51.262;6.336;2023-08-20T13:18:48;4.93;;;4.00;;
80776;SDS011;70169;51.262;6.336;2023-08-20T13:21:04;4.85;;;3.40;;
80776;SDS011;70169;51.262;6.336;2023-08-20T13:23:19;4.45;;;3.45;;
80776;SDS011;70169;51.262;6.336;2023-08-20T13:25:35;5.88;;;3.65;;
80776;SDS011;70169;51.262;6.336;2023-08-20T13:27:50;5.30;;;3.88;;
80776;SDS011;70169;51.262;6.336;2023-08-20T13:30:06;7.60;;;3.97;;
80776;SDS011;70169;51.262;6.336;2023-08-20T13:32:23;5.13;;;3.78;;
80776;SDS011;70169;51.262;6.336;2023-08-20T13:34:39;4.07;;;3.25;;
80776;SDS011;70169;51.262;6.336;2023-08-20T13:36:54;4.85;;;3.25;;
80776;SDS011;70169;51.262;6.336;2023-08-20T13:39:09;4.60;;;3.20;;
80776;SDS011;70169;51.262;6.336;2023-08-20T13:41:28;5.03;;;3.67;;
80776;SDS011;70169;51.262;6.336;2023-08-20T13:43:44;5.75;;;3.42;;
80776;SDS011;70169;51.262;6.336;2023-08-20T13:45:59;4.72;;;3.38;;
80776;SDS011;70169;51.262;6.336;2023-08-20T13:48:14;5.22;;;3.42;;
80776;SDS011;70169;51.262;6.336;2023-08-20T13:50:30;6.93;;;3.40;;
80776;SDS011;70169;51.262;6.336;2023-08-20T13:52:45;4.65;;;3.58;;
80776;SDS011;70169;51.262;6.336;2023-08-20T13:55:01;5.50;;;3.13;;
80776;SDS011;70169;51.262;6.336;2023-08-20T13:57:16;4.17;;;3.20;;
80776;SDS011;70169;51.262;6.336;2023-08-20T13:59:31;4.88;;;3.08;;
80776;SDS011;70169;51.262;6.336;2023-08-20T14:01:47;4.43;;;2.50;;